Time;durP1;ratioP1;P1;durP2;ratioP2;P2;SDS_P1;SDS_P2;PMS_P1;PMS_P2;Temp;Humidity;BMP_temperature;BMP_pressure;BME280_temperature;BME280_humidity;BME280_pressure;Samples;Min_cycle;Max_cycle;Signal;HPM_P1;HPM_P2
2022/09/20 00:00:12;;;;;;;7.00;2.17;;;;;;;11.73;67.74;98938.80;1806781;79;21264;-44
2022/09/20 00:02:40;;;;;;;7.30;2.20;;;;;;;11.70;67.77;98933.52;1807272;79;20894;-44
2022/09/20 00:05:07;;;;;;;4.78;2.00;;;;;;;11.66;67.49;98937.38;1806963;79;21060;-44
2022/09/20 00:07:34;;;;;;;3.35;2.08;;;;;;;11.62;67.45;98948.19;1807215;79;21028;-44
2022/09/20 00:10:01;;;;;;;5.53;1.82;;;;;;;11.57;67.37;98947.17;1807011;79;21013;-44
2022/09/20 00:12:28;;;;;;;3.30;1.80;;;;;;;11.52;67.45;98939.97;1806995;79;21128;-44
2022/09/20 00:14:54;;;;;;;3.00;1.67;;;;;;;11.50;67.46;98938.98;1807102;79;21500;-44
2022/09/20 00:17:21;;;;;;;3.40;1.77;;;;;;;11.54;67.40;98933.00;1806937;79;20933;-44
2022/09/20 00:19:48;;;;;;;2.92;2.12;;;;;;;11.56;67.43;98941.56;1806889;79;20969;-44
2022/09/20 00:22:17;;;;;;;2.40;1.80;;;;;;;11.54;67.44;98942.50;1806960;79;20913;-44
2022/09/20 00:24:45;;;;;;;6.75;2.02;;;;;;;11.54;67.50;98945.22;1806959;79;21227;-44
2022/09/20 00:27:12;;;;;;;7.10;2.20;;;;;;;11.51;67.35;98943.84;1806875;79;21516;-44
2022/09/20 00:29:39;;;;;;;8.73;2.17;;;;;;;11.47;67.50;98941.10;1806953;79;20957;-44
2022/09/20 00:32:08;;;;;;;5.83;1.90;;;;;;;11.46;67.69;98942.25;1806938;79;20989;-44
2022/09/20 00:37:20;;;;;;;5.30;2.08;;;;;;;11.53;67.84;98939.58;1807127;79;22127;-44
2022/09/20 00:39:46;;;;;;;3.90;1.98;;;;;;;11.57;67.92;98936.91;1806983;79;20966;-44
2022/09/20 00:42:13;;;;;;;3.77;2.35;;;;;;;11.57;68.02;98936.31;1816967;78;21514;-44
2022/09/20 00:44:59;;;;;;;5.28;2.00;;;;;;;11.60;68.20;98939.65;1824837;78;21375;-43
2022/09/20 00:47:37;;;;;;;3.85;1.87;;;;;;;11.61;68.31;98941.22;1773207;79;21022;-43
2022/09/20 00:50:32;;;;;;;3.02;2.02;;;;;;;11.61;68.54;98942.58;1809940;79;21097;-43
2022/09/20 00:53:12;;;;;;;5.55;1.90;;;;;;;11.62;68.74;98940.03;1809226;79;20975;-42
2022/09/20 00:55:44;;;;;;;7.08;2.20;;;;;;;11.66;68.86;98942.80;1809039;79;21040;-43
2022/09/20 00:58:12;;;;;;;2.70;1.82;;;;;;;11.73;68.79;98940.16;1808934;79;21869;-43
2022/09/20 01:00:38;;;;;;;3.45;2.00;;;;;;;11.78;68.82;98947.17;1777985;79;21015;-43
2022/09/20 01:03:08;;;;;;;3.45;2.20;;;;;;;11.82;68.78;98948.75;1803928;79;23221;-43
2022/09/20 01:05:35;;;;;;;4.63;2.37;;;;;;;11.83;68.80;98941.39;1809335;79;21208;-44
2022/09/20 01:08:02;;;;;;;3.50;2.30;;;;;;;11.81;68.65;98940.42;1808909;79;21481;-44
2022/09/20 01:10:29;;;;;;;5.97;2.50;;;;;;;11.81;68.67;98945.08;1808741;79;21372;-44
2022/09/20 01:12:56;;;;;;;3.35;2.35;;;;;;;11.77;68.64;98943.67;1777344;79;21050;-44
2022/09/20 01:15:22;;;;;;;3.60;1.90;;;;;;;11.78;68.58;98945.81;1809041;79;21505;-44
2022/09/20 01:17:51;;;;;;;3.67;2.27;;;;;;;11.84;68.62;98944.31;1808591;79;20959;-44
2022/09/20 01:20:28;;;;;;;5.33;2.00;;;;;;;11.90;68.62;98947.66;1809084;79;21557;-44
2022/09/20 01:23:09;;;;;;;4.35;2.22;;;;;;;11.91;68.57;98949.80;1808220;79;20963;-44
2022/09/20 01:26:14;;;;;;;3.65;2.30;;;;;;;11.92;68.52;98943.19;1808827;79;21054;-44
2022/09/20 01:28:42;;;;;;;3.67;2.20;;;;;;;11.92;68.46;98941.83;1808715;79;23153;-44
2022/09/20 01:31:25;;;;;;;5.83;2.52;;;;;;;11.87;68.45;98939.47;1808758;79;20915;-44
2022/09/20 01:34:30;;;;;;;2.70;2.20;;;;;;;11.89;68.33;98937.95;1808740;79;21013;-44
2022/09/20 01:37:14;;;;;;;4.33;2.20;;;;;;;11.92;68.25;98931.75;1808676;79;21009;-44
2022/09/20 01:39:56;;;;;;;5.67;2.50;;;;;;;11.92;68.22;98935.05;1808168;79;21002;-44
2022/09/20 01:42:28;;;;;;;4.08;2.40;;;;;;;11.91;68.30;98934.87;1797356;79;23209;-44
2022/09/20 01:45:16;;;;;;;6.62;2.83;;;;;;;11.89;68.20;98942.02;1786058;79;21020;-44
2022/09/20 01:48:14;;;;;;;4.35;2.87;;;;;;;11.89;68.13;98930.38;1786135;80;20961;-44
2022/09/20 01:51:19;;;;;;;6.60;2.47;;;;;;;11.85;68.25;98928.22;1777900;80;21011;-44
2022/09/20 01:54:15;;;;;;;2.65;2.15;;;;;;;11.87;68.37;98928.61;1759705;80;20948;-44
2022/09/20 01:56:57;;;;;;;3.65;2.25;;;;;;;11.91;68.44;98924.75;1786385;79;21215;-44
2022/09/20 01:59:50;;;;;;;11.22;3.47;;;;;;;11.93;68.48;98924.38;1786196;79;21007;-44
2022/09/20 02:03:00;;;;;;;4.78;2.50;;;;;;;11.91;68.62;98918.56;1786288;79;20980;-44
2022/09/20 02:05:41;;;;;;;3.72;2.45;;;;;;;11.89;68.86;98921.66;1786384;80;20952;-44
2022/09/20 02:08:36;;;;;;;7.85;2.75;;;;;;;11.87;68.91;98928.61;1786269;80;21024;-44
2022/09/20 02:11:14;;;;;;;4.87;2.35;;;;;;;11.84;69.05;98922.58;1786035;80;23130;-44
2022/09/20 02:14:02;;;;;;;4.20;2.65;;;;;;;11.87;69.05;98929.97;1786500;79;21002;-44
2022/09/20 02:16:54;;;;;;;5.70;2.30;;;;;;;11.91;68.80;98930.19;1786472;79;20901;-44
2022/09/20 02:19:43;;;;;;;4.65;2.30;;;;;;;11.87;69.07;98932.67;1786392;80;21692;-44
2022/09/20 02:22:59;;;;;;;2.85;2.15;;;;;;;11.81;69.39;98925.48;1757098;80;21582;-44
2022/09/20 02:25:37;;;;;;;4.03;2.37;;;;;;;11.81;69.57;98932.86;1786471;80;21303;-44
2022/09/20 02:28:30;;;;;;;5.65;2.25;;;;;;;11.74;69.49;98935.72;1786197;80;20967;-44
2022/09/20 02:31:45;;;;;;;3.77;2.08;;;;;;;11.74;69.38;98945.22;1786370;80;20928;-44
2022/09/20 02:34:46;;;;;;;4.62;2.20;;;;;;;11.75;69.35;98942.70;1786154;80;21082;-44
2022/09/20 02:37:42;;;;;;;3.52;2.60;;;;;;;11.72;69.25;98946.16;1714254;83;21117;-44
2022/09/20 02:40:40;;;;;;;8.10;2.67;;;;;;;11.70;69.12;98944.39;1713895;83;21084;-44
2022/09/20 02:43:45;;;;;;;4.35;2.40;;;;;;;11.67;68.90;98936.19;1784605;79;20951;-44
2022/09/20 02:46:29;;;;;;;4.53;2.40;;;;;;;11.62;68.61;98941.97;1800993;79;20923;-44
2022/09/20 02:49:13;;;;;;;7.08;2.67;;;;;;;11.53;68.40;98946.36;1796695;79;21011;-44
2022/09/20 02:51:44;;;;;;;4.50;2.52;;;;;;;11.43;68.35;98941.63;1800847;79;21014;-44
2022/09/20 02:54:30;;;;;;;4.65;2.30;;;;;;;11.41;68.43;98930.95;1800819;79;21767;-44
2022/09/20 02:57:37;;;;;;;4.97;2.52;;;;;;;11.43;68.32;98925.34;1800499;79;21482;-44
2022/09/20 03:00:15;;;;;;;9.45;2.90;;;;;;;11.42;68.05;98932.52;1800852;79;21521;-44
2022/09/20 03:03:16;;;;;;;6.20;2.80;;;;;;;11.30;68.01;98930.86;1801166;79;21049;-44
2022/09/20 03:06:13;;;;;;;5.12;2.42;;;;;;;11.24;68.36;98929.62;1800934;79;21090;-44
2022/09/20 03:09:09;;;;;;;6.03;2.62;;;;;;;11.18;68.55;98937.33;1798960;79;21131;-44
2022/09/20 03:11:57;;;;;;;3.70;2.52;;;;;;;11.13;68.79;98943.12;1800839;79;20919;-44
2022/09/20 03:14:39;;;;;;;5.28;2.10;;;;;;;11.12;68.77;98943.48;1800555;79;21598;-44
2022/09/20 03:17:22;;;;;;;3.25;2.30;;;;;;;11.15;68.76;98938.66;1800882;79;21023;-44
2022/09/20 03:20:12;;;;;;;5.35;2.72;;;;;;;11.15;68.82;98939.44;1800766;79;20994;-44
2022/09/20 03:23:21;;;;;;;4.70;2.52;;;;;;;11.14;68.81;98937.09;1800215;79;21207;-44
2022/09/20 03:26:18;;;;;;;3.67;2.58;;;;;;;11.10;68.96;98940.34;1801026;79;20928;-44
2022/09/20 03:28:56;;;;;;;2.75;2.35;;;;;;;11.02;69.18;98934.09;1800724;79;20927;-44
2022/09/20 03:32:01;;;;;;;5.03;2.33;;;;;;;10.94;69.60;98932.43;1788922;79;20892;-44
2022/09/20 03:34:43;;;;;;;6.62;2.37;;;;;;;10.93;69.87;98934.97;1783092;79;21301;-44
2022/09/20 03:37:24;;;;;;;3.72;2.47;;;;;;;10.96;70.14;98940.20;1800823;79;21140;-44
2022/09/20 03:40:20;;;;;;;3.77;2.60;;;;;;;10.99;70.21;98944.91;1798438;79;21504;-44
2022/09/20 03:42:54;;;;;;;4.53;2.17;;;;;;;11.01;70.26;98939.88;1772077;79;21007;-44
2022/09/20 03:45:41;;;;;;;5.78;2.20;;;;;;;11.02;70.43;98947.65;1800858;79;20980;-44
2022/09/20 03:48:23;;;;;;;3.60;2.22;;;;;;;11.06;70.46;98940.89;1800835;79;21512;-44
2022/09/20 03:51:28;;;;;;;3.27;2.20;;;;;;;11.10;70.37;98942.48;1800052;79;21155;-44
2022/09/20 03:54:34;;;;;;;4.65;2.60;;;;;;;11.20;70.26;98941.03;1800638;79;20947;-44
2022/09/20 03:57:41;;;;;;;4.95;2.27;;;;;;;11.25;70.20;98939.34;1800866;79;21845;-44
2022/09/20 04:00:44;;;;;;;7.70;2.17;;;;;;;11.26;70.13;98940.91;1800721;79;21371;-43
2022/09/20 04:03:41;;;;;;;2.60;2.17;;;;;;;11.26;70.15;98938.19;1800672;79;21664;-44
2022/09/20 04:06:38;;;;;;;3.80;2.10;;;;;;;11.25;70.15;98942.05;1735041;81;21085;-44
2022/09/20 04:09:52;;;;;;;3.62;1.98;;;;;;;11.31;70.17;98937.85;1799119;79;20912;-44
2022/09/20 04:12:41;;;;;;;5.53;2.00;;;;;;;11.37;70.05;98947.22;1801103;79;20984;-44
2022/09/20 04:15:29;;;;;;;2.40;2.20;;;;;;;11.37;70.08;98947.22;1801290;79;20999;-44
2022/09/20 04:18:11;;;;;;;5.72;2.47;;;;;;;11.38;69.97;98942.54;1757001;79;21043;-44
2022/09/20 04:20:48;;;;;;;4.90;2.20;;;;;;;11.38;69.99;98942.54;1795807;79;21216;-44
2022/09/20 04:23:39;;;;;;;4.28;2.08;;;;;;;11.37;70.08;98936.36;1800955;79;21011;-44
2022/09/20 04:26:07;;;;;;;3.77;2.30;;;;;;;11.38;70.00;98942.54;1796288;79;20967;-44
2022/09/20 04:28:58;;;;;;;6.35;2.60;;;;;;;11.39;69.96;98944.89;1800884;79;21007;-44
2022/09/20 04:31:56;;;;;;;3.42;2.40;;;;;;;11.41;69.96;98945.31;1800928;79;20980;-44
2022/09/20 04:37:31;;;;;;;2.80;2.30;;;;;;;11.42;69.87;98963.73;1800910;79;21062;-44
2022/09/20 04:40:13;;;;;;;6.07;2.60;;;;;;;11.40;69.77;98972.23;1801167;79;21046;-44
2022/09/20 04:43:16;;;;;;;4.47;2.30;;;;;;;11.43;69.82;98970.70;1765444;79;21613;-44
2022/09/20 04:46:40;;;;;;;4.17;2.22;;;;;;;11.49;69.75;98970.56;1756183;81;21637;-44
2022/09/20 04:49:33;;;;;;;4.15;2.20;;;;;;;11.49;69.76;98976.78;1787007;80;23143;-44
2022/09/20 04:52:34;;;;;;;3.72;2.52;;;;;;;11.47;70.03;98976.39;1743787;80;22091;-44
2022/09/20 04:55:43;;;;;;;3.52;2.33;;;;;;;11.50;70.02;98981.06;1755996;81;20884;-44
2022/09/20 04:58:22;;;;;;;6.00;2.12;;;;;;;11.51;70.07;98985.91;1756180;81;20990;-43
2022/09/20 05:01:00;;;;;;;3.42;2.20;;;;;;;11.53;70.06;98983.02;1756078;81;21086;-44
2022/09/20 05:04:01;;;;;;;5.10;2.25;;;;;;;11.61;69.96;98977.87;1754436;81;21562;-44
2022/09/20 05:07:06;;;;;;;8.95;2.42;;;;;;;11.65;69.91;98985.46;1786990;79;21007;-43
2022/09/20 05:10:17;;;;;;;7.20;2.52;;;;;;;11.67;69.75;98985.85;1755905;81;21023;-43
2022/09/20 05:13:16;;;;;;;3.05;2.42;;;;;;;11.68;69.57;98978.48;1756059;81;21035;-43
2022/09/20 05:16:07;;;;;;;6.12;2.40;;;;;;;11.66;69.66;98976.74;1755955;81;21507;-43
2022/09/20 05:18:58;;;;;;;4.58;2.52;;;;;;;11.63;69.44;98976.90;1756003;81;21235;-43
2022/09/20 05:22:05;;;;;;;4.20;3.00;;;;;;;11.65;69.63;98979.25;1755971;81;20999;-43
2022/09/20 05:25:01;;;;;;;3.60;2.60;;;;;;;11.68;69.85;98979.84;1756010;81;21019;-44
2022/09/20 05:27:55;;;;;;;5.12;3.00;;;;;;;11.66;69.58;98978.10;1726577;81;21064;-44
2022/09/20 05:30:46;;;;;;;2.92;2.12;;;;;;;11.62;69.70;98967.77;1756175;81;21083;-44
2022/09/20 05:33:40;;;;;;;3.30;2.27;;;;;;;11.65;69.68;98977.31;1754753;81;21237;-44
2022/09/20 05:36:24;;;;;;;5.25;2.80;;;;;;;11.71;69.71;98974.44;1787308;80;21435;-44
2022/09/20 05:39:05;;;;;;;3.47;2.70;;;;;;;11.74;69.76;98973.73;1756215;81;21007;-44
2022/09/20 05:41:53;;;;;;;4.33;2.67;;;;;;;11.77;69.97;98978.98;1756043;81;20967;-44
2022/09/20 05:44:50;;;;;;;6.17;2.72;;;;;;;11.79;69.89;98975.89;1753896;81;21071;-44
2022/09/20 05:47:44;;;;;;;4.08;2.27;;;;;;;11.79;69.68;98985.40;1775848;80;21249;-44
2022/09/20 05:50:42;;;;;;;3.67;2.72;;;;;;;11.86;69.87;98978.67;1706047;84;21029;-44
2022/09/20 05:53:28;;;;;;;7.35;2.65;;;;;;;11.89;69.42;98973.27;1738177;82;21111;-44
2022/09/20 05:56:15;;;;;;;4.65;2.90;;;;;;;11.88;69.48;98976.34;1753873;81;21039;-44
2022/09/20 05:58:50;;;;;;;4.60;2.92;;;;;;;11.87;69.61;98974.78;1757044;81;21088;-44
2022/09/20 06:01:40;;;;;;;6.70;2.80;;;;;;;11.86;69.48;98974.60;1756956;81;21310;-44
2022/09/20 06:04:17;;;;;;;;;;;;;;;11.87;69.69;98972.84;1759650;81;21028;-44
2022/09/20 06:07:12;;;;;;;5.78;3.50;;;;;;;11.98;69.76;98982.44;1757010;81;20170;-44
2022/09/20 06:10:01;;;;;;;5.25;3.15;;;;;;;11.97;69.92;98980.30;1753376;80;21130;-44
2022/09/20 06:13:18;;;;;;;5.57;3.43;;;;;;;12.06;70.21;98979.38;1757205;81;21055;-44
2022/09/20 06:16:01;;;;;;;7.92;3.40;;;;;;;12.15;70.24;98989.95;1807338;79;21495;-43
2022/09/20 06:18:34;;;;;;;8.25;3.45;;;;;;;12.20;70.18;98978.69;1808012;79;20957;-44
2022/09/20 06:21:32;;;;;;;4.90;3.40;;;;;;;12.30;69.90;98978.55;1807909;79;21483;-44
2022/09/20 06:24:00;;;;;;;6.12;3.40;;;;;;;12.41;69.76;98978.83;1807427;79;20990;-44
2022/09/20 06:26:31;;;;;;;4.78;3.10;;;;;;;12.49;69.44;98977.69;1808008;79;21009;-44
2022/09/20 06:29:01;;;;;;;4.28;2.80;;;;;;;12.55;69.52;98980.25;1807790;79;23111;-44
2022/09/20 06:31:28;;;;;;;4.12;2.85;;;;;;;12.63;69.43;98981.08;1808157;79;21432;-44
2022/09/20 06:34:00;;;;;;;4.17;2.60;;;;;;;12.69;68.99;98978.75;1807928;79;21578;-43
2022/09/20 06:42:20;;;;;;;3.90;2.50;;;;;;;12.90;68.44;98979.63;1808285;79;21076;-44
2022/09/20 06:44:46;;;;;;;3.17;2.30;;;;;;;12.96;67.74;98986.26;1827008;78;20940;-44
2022/09/20 06:47:14;;;;;;;4.97;2.52;;;;;;;13.01;67.58;98984.52;1832296;78;21486;-44
2022/09/20 06:49:45;;;;;;;4.78;2.83;;;;;;;13.07;67.34;98986.27;1832144;78;21478;-44
2022/09/20 06:52:17;;;;;;;5.22;2.50;;;;;;;13.10;67.07;98982.80;1832101;78;21036;-44
2022/09/20 06:54:45;;;;;;;2.37;2.17;;;;;;;13.14;67.01;98988.27;1832293;78;21050;-44
2022/09/20 06:57:17;;;;;;;3.40;2.30;;;;;;;13.19;66.63;98992.76;1802027;78;20995;-44
2022/09/20 06:59:48;;;;;;;4.20;2.27;;;;;;;13.24;66.21;98988.88;1832193;78;21729;-44
2022/09/20 07:02:13;;;;;;;3.72;2.33;;;;;;;13.28;66.11;98989.08;1831290;78;20968;-44
2022/09/20 07:04:39;;;;;;;7.10;2.77;;;;;;;13.33;65.62;98986.56;1832090;78;21557;-44
2022/09/20 07:07:07;;;;;;;4.95;3.15;;;;;;;13.35;65.26;98986.38;1831714;78;23113;-44
2022/09/20 07:09:34;;;;;;;4.95;2.90;;;;;;;13.36;65.10;98983.84;1832123;78;21170;-44
2022/09/20 07:12:01;;;;;;;3.02;2.50;;;;;;;13.37;65.25;98985.40;1831763;78;20975;-44
2022/09/20 07:14:28;;;;;;;3.65;2.52;;;;;;;13.41;65.16;98982.09;1832236;78;21079;-44
2022/09/20 07:16:55;;;;;;;4.08;2.50;;;;;;;13.50;64.85;98980.37;1831862;78;20952;-44
2022/09/20 07:19:22;;;;;;;7.00;3.00;;;;;;;13.58;64.48;98976.48;1831746;78;21120;-44
2022/09/20 07:21:49;;;;;;;4.12;2.72;;;;;;;13.61;64.18;98973.55;1831867;78;20948;-44
2022/09/20 07:24:16;;;;;;;3.62;2.90;;;;;;;13.65;64.05;98975.72;1831842;78;21003;-44
2022/09/20 07:27:01;;;;;;;3.02;2.50;;;;;;;13.67;64.06;98973.36;1831921;78;20967;-44
2022/09/20 07:29:28;;;;;;;4.87;2.92;;;;;;;13.70;64.19;98969.88;1831857;78;21525;-44
2022/09/20 07:31:55;;;;;;;3.72;2.85;;;;;;;13.70;63.95;98972.61;1831825;78;21123;-44
2022/09/20 07:34:22;;;;;;;5.10;2.62;;;;;;;13.70;64.28;98971.24;1831846;78;20991;-44
2022/09/20 07:36:51;;;;;;;4.03;2.77;;;;;;;13.76;64.31;98971.03;1826862;78;21471;-44
2022/09/20 07:39:18;;;;;;;5.22;2.92;;;;;;;13.87;64.10;98973.17;1831755;78;21067;-44
2022/09/20 07:41:47;;;;;;;4.95;3.10;;;;;;;13.94;64.30;98977.27;1831882;78;20972;-44
2022/09/20 07:44:23;;;;;;;3.98;3.05;;;;;;;14.01;64.17;98973.16;1821523;78;21215;-44
2022/09/20 07:46:51;;;;;;;5.97;2.90;;;;;;;14.04;64.34;98972.36;1808328;79;21642;-44
2022/09/20 07:49:19;;;;;;;5.37;3.22;;;;;;;14.10;63.91;98974.11;1808142;78;20992;-44
2022/09/20 07:51:46;;;;;;;5.20;3.05;;;;;;;14.14;63.74;98971.57;1808438;79;20988;-44
2022/09/20 07:54:12;;;;;;;3.85;2.87;;;;;;;14.19;63.49;98976.62;1807931;79;20986;-44
2022/09/20 07:56:40;;;;;;;3.60;2.72;;;;;;;14.24;63.28;98973.50;1808377;79;21695;-44
2022/09/20 07:59:06;;;;;;;7.83;3.08;;;;;;;14.27;63.34;98968.64;1808110;79;21437;-44
2022/09/20 08:01:34;;;;;;;5.42;2.87;;;;;;;14.37;63.58;98967.67;1808126;79;22066;-44
2022/09/20 08:04:01;;;;;;;3.98;2.80;;;;;;;14.51;63.04;98966.27;1808096;79;20977;-44
2022/09/20 08:06:28;;;;;;;5.97;2.90;;;;;;;14.59;62.44;98967.20;1775159;79;21020;-44
2022/09/20 08:08:55;;;;;;;4.45;3.02;;;;;;;14.64;61.98;98966.02;1807927;79;21223;-44
2022/09/20 08:11:24;;;;;;;5.83;3.42;;;;;;;14.67;61.86;98967.94;1808028;79;21483;-44
2022/09/20 08:13:52;;;;;;;4.35;2.80;;;;;;;14.69;61.94;98966.97;1808156;79;20925;-44
2022/09/20 08:16:19;;;;;;;4.80;3.55;;;;;;;14.67;62.12;98963.27;1808226;79;21550;-44
2022/09/20 08:18:56;;;;;;;4.25;3.00;;;;;;;14.68;62.11;98958.59;1807997;79;20989;-44
2022/09/20 08:21:30;;;;;;;5.33;3.30;;;;;;;14.72;62.44;98955.25;1808209;78;21075;-44
2022/09/20 08:23:58;;;;;;;4.87;3.25;;;;;;;14.74;61.97;98953.70;1775407;79;20949;-44
2022/09/20 08:26:27;;;;;;;5.25;3.10;;;;;;;14.76;61.72;98954.67;1808031;78;20984;-44
2022/09/20 08:28:56;;;;;;;4.87;3.10;;;;;;;14.73;61.70;98951.36;1807945;79;20976;-44
2022/09/20 08:31:25;;;;;;;4.12;3.17;;;;;;;14.67;61.60;98946.89;1808395;79;20989;-44
2022/09/20 08:33:53;;;;;;;4.75;3.00;;;;;;;14.63;62.20;98939.90;1808002;79;21110;-44
2022/09/20 08:36:23;;;;;;;4.45;3.20;;;;;;;14.61;62.47;98940.90;1808314;79;21548;-44
2022/09/20 08:38:51;;;;;;;5.12;3.40;;;;;;;14.58;62.42;98941.09;1808065;79;20977;-44
2022/09/20 08:41:35;;;;;;;8.13;3.60;;;;;;;14.57;62.44;98941.51;1808423;79;21504;-44
2022/09/20 08:44:06;;;;;;;5.72;3.10;;;;;;;14.52;62.48;98945.42;1811568;78;21060;-45
2022/09/20 08:46:36;;;;;;;5.15;2.98;;;;;;;14.50;62.74;98944.24;1831258;78;21167;-44
2022/09/20 08:49:06;;;;;;;7.03;3.25;;;;;;;14.51;62.59;98949.90;1831761;78;21511;-44
2022/09/20 08:51:37;;;;;;;4.45;3.12;;;;;;;14.49;62.55;98942.10;1831930;78;21529;-44
2022/09/20 08:54:06;;;;;;;6.97;2.90;;;;;;;14.49;62.48;98943.47;1802656;78;21000;-44
2022/09/20 08:56:35;;;;;;;4.62;3.00;;;;;;;14.46;62.48;98939.39;1802811;78;21019;-44
2022/09/20 08:59:04;;;;;;;5.87;2.90;;;;;;;14.44;62.51;98937.64;1832144;78;21229;-44
2022/09/20 09:01:32;;;;;;;4.33;2.90;;;;;;;14.48;62.44;98934.30;1802131;78;21499;-44
2022/09/20 09:04:22;;;;;;;3.50;2.42;;;;;;;14.52;62.52;98933.73;1832146;78;21019;-44
2022/09/20 09:06:50;;;;;;;;;;;;;;;14.55;62.52;98939.75;1834942;78;20991;-44
2022/09/20 09:09:24;;;;;;;3.53;2.60;;;;;;;14.54;62.21;98938.19;1832451;78;20502;-44
2022/09/20 09:11:53;;;;;;;5.90;3.17;;;;;;;14.42;62.52;98944.09;1832355;78;21032;-45
2022/09/20 09:14:47;;;;;;;5.50;3.08;;;;;;;14.42;62.41;98945.45;1831965;78;21004;-44
2022/09/20 09:17:18;;;;;;;5.25;3.00;;;;;;;14.38;62.39;98942.72;1831784;78;20952;-44
2022/09/20 09:19:50;;;;;;;4.67;3.27;;;;;;;14.27;63.04;98948.77;1831353;78;20972;-44
2022/09/20 09:22:22;;;;;;;9.13;3.60;;;;;;;14.23;63.46;98946.04;1831904;78;21012;-44
2022/09/20 09:25:09;;;;;;;4.58;3.65;;;;;;;14.25;63.47;98942.34;1832104;78;21803;-44
2022/09/20 09:27:58;;;;;;;8.43;4.40;;;;;;;14.30;63.79;98945.25;1789370;78;21011;-44
2022/09/20 09:30:38;;;;;;;6.20;3.98;;;;;;;14.29;64.27;98944.47;1831943;78;21039;-44
2022/09/20 09:33:18;;;;;;;;;;;;;;;14.30;64.85;98941.94;1834039;78;21012;-45
2022/09/20 09:36:06;;;;;;;6.00;4.00;;;;;;;14.31;65.08;98941.36;1832047;78;20172;-44
2022/09/20 09:38:36;;;;;;;5.83;4.47;;;;;;;14.22;65.61;98947.23;1832245;78;21079;-44
2022/09/20 09:41:07;;;;;;;6.83;4.00;;;;;;;14.25;65.94;98945.66;1831823;78;20924;-44
2022/09/20 09:43:36;;;;;;;8.08;4.10;;;;;;;14.31;65.79;98935.32;1832187;78;20900;-44
2022/09/20 09:46:20;;;;;;;8.13;4.30;;;;;;;14.34;65.51;98942.70;1810526;78;20988;-44
2022/09/20 09:48:50;;;;;;;7.78;4.20;;;;;;;14.34;65.59;98937.25;1808292;79;21017;-44
2022/09/20 09:51:19;;;;;;;6.42;4.25;;;;;;;14.33;65.90;98940.36;1800244;79;21238;-44
2022/09/20 09:53:50;;;;;;;8.48;4.87;;;;;;;14.34;66.03;98935.89;1808261;79;21005;-44
2022/09/20 09:56:28;;;;;;;7.47;4.90;;;;;;;14.35;66.23;98931.99;1808029;79;20925;-45
2022/09/20 09:59:19;;;;;;;7.00;4.30;;;;;;;14.34;66.32;98935.89;1808060;79;21017;-44
2022/09/20 10:02:09;;;;;;;6.28;4.33;;;;;;;14.34;66.60;98934.52;1807793;79;20957;-44
2022/09/20 10:05:23;;;;;;;7.08;4.12;;;;;;;14.40;66.93;98939.60;1808450;79;21320;-44
2022/09/20 10:08:01;;;;;;;6.55;4.22;;;;;;;14.43;67.17;98942.89;1808208;79;21558;-44
2022/09/20 10:11:19;;;;;;;5.83;4.10;;;;;;;14.42;67.49;98937.27;1808139;79;20925;-45
2022/09/20 10:14:09;;;;;;;8.03;4.47;;;;;;;14.45;67.70;98937.83;1808336;79;21546;-45
2022/09/20 10:17:03;;;;;;;8.35;5.03;;;;;;;14.43;67.81;98935.49;1806966;79;21001;-44
2022/09/20 10:19:57;;;;;;;6.03;4.30;;;;;;;14.48;68.15;98937.03;1808257;78;21194;-44
2022/09/20 10:23:04;;;;;;;5.70;3.60;;;;;;;14.54;68.31;98936.82;1808023;79;21495;-44
2022/09/20 10:25:55;;;;;;;4.55;3.60;;;;;;;14.60;68.13;98933.30;1807113;79;21054;-44
2022/09/20 10:28:47;;;;;;;;;;;;;;;14.62;67.73;98924.73;1810757;79;21013;-45
2022/09/20 10:31:34;;;;;;;4.75;3.22;;;;;;;14.65;66.93;98930.74;1806905;79;20143;-45
2022/09/20 10:34:38;;;;;;;3.90;3.37;;;;;;;14.52;66.96;98926.33;1807825;79;21124;-44
2022/09/20 10:37:12;;;;;;;5.03;3.08;;;;;;;14.54;67.08;98923.19;1807808;79;21527;-45
2022/09/20 10:39:44;;;;;;;3.75;3.35;;;;;;;14.56;67.34;98924.94;1807878;78;20969;-45
2022/09/20 10:45:27;;;;;;;5.03;3.20;;;;;;;14.71;67.90;98914.16;1807751;78;21057;-45
2022/09/20 10:48:22;;;;;;;3.90;3.50;;;;;;;14.78;67.55;98912.16;1808128;79;21181;-45
2022/09/20 10:51:09;;;;;;;5.92;3.60;;;;;;;14.79;66.54;98904.16;1798776;79;21021;-45
2022/09/20 10:54:05;;;;;;;4.47;3.20;;;;;;;14.72;66.44;98904.19;1807562;79;21097;-45
2022/09/20 10:56:49;;;;;;;6.67;3.90;;;;;;;14.67;66.52;98907.91;1806778;79;21017;-45
2022/09/20 10:59:33;;;;;;;4.53;3.47;;;;;;;14.68;66.65;98906.75;1808033;79;21059;-44
2022/09/20 11:02:43;;;;;;;6.78;3.62;;;;;;;14.67;66.81;98903.83;1807990;79;21119;-45
2022/09/20 11:05:40;;;;;;;5.80;3.95;;;;;;;14.64;67.02;98899.17;1808066;79;21535;-45
2022/09/20 11:08:14;;;;;;;8.50;4.60;;;;;;;14.60;67.05;98901.14;1807831;78;20941;-44
2022/09/20 11:10:54;;;;;;;6.40;4.37;;;;;;;14.50;67.07;98899.23;1807946;78;21000;-44
2022/09/20 11:13:49;;;;;;;6.22;4.42;;;;;;;14.47;67.38;98893.22;1808095;79;21004;-45
2022/09/20 11:16:23;;;;;;;5.45;4.00;;;;;;;14.45;67.60;98881.92;1796701;79;21230;-45
2022/09/20 11:19:12;;;;;;;5.67;4.00;;;;;;;14.50;67.73;98895.93;1808269;79;21012;-45
2022/09/20 11:21:58;;;;;;;7.55;5.20;;;;;;;14.51;67.94;98889.30;1808027;79;20948;-45
2022/09/20 11:24:46;;;;;;;6.17;4.50;;;;;;;14.52;67.97;98891.45;1808121;78;21005;-45
2022/09/20 11:27:21;;;;;;;7.83;4.78;;;;;;;14.51;67.88;98881.70;1787369;79;21025;-44
2022/09/20 11:29:57;;;;;;;4.70;3.98;;;;;;;14.51;68.16;98883.85;1808170;79;21110;-44
2022/09/20 11:32:41;;;;;;;4.83;3.83;;;;;;;14.56;68.14;98882.08;1791031;79;21071;-45
2022/09/20 11:35:51;;;;;;;6.92;4.58;;;;;;;14.65;68.34;98880.27;1808191;78;21048;-45
2022/09/20 11:38:37;;;;;;;7.70;4.90;;;;;;;14.66;68.46;98874.42;1807877;79;21008;-45
2022/09/20 11:41:27;;;;;;;8.03;5.05;;;;;;;14.68;68.38;98878.10;1807870;79;21060;-44
2022/09/20 11:44:06;;;;;;;5.17;4.03;;;;;;;14.69;68.38;98877.71;1807626;79;21225;-45
2022/09/20 11:46:55;;;;;;;;;;;;;;;14.70;68.21;98871.67;1795118;78;20997;-44
2022/09/20 11:49:39;;;;;;;6.12;4.37;;;;;;;14.67;68.10;98873.81;1802296;78;20232;-44
2022/09/20 11:52:17;;;;;;;8.58;5.17;;;;;;;14.65;68.35;98872.09;1822663;78;21067;-45
2022/09/20 11:55:06;;;;;;;11.40;5.10;;;;;;;14.65;68.00;98877.55;1822689;78;21677;-45
2022/09/20 12:00:09;;;;;;;9.30;4.85;;;;;;;14.62;67.98;98867.44;1777462;78;22224;-45
2022/09/20 12:02:51;;;;;;;6.35;4.90;;;;;;;14.47;68.12;98872.77;1755422;81;20999;-45
2022/09/20 12:05:37;;;;;;;6.62;4.92;;;;;;;14.44;68.27;98873.55;1755341;81;21190;-45
2022/09/20 12:08:07;;;;;;;7.10;4.55;;;;;;;14.46;68.42;98873.94;1755234;81;21529;-45
2022/09/20 12:10:37;;;;;;;6.60;4.50;;;;;;;14.48;68.52;98871.57;1755636;81;20960;-45
2022/09/20 12:13:07;;;;;;;6.58;4.40;;;;;;;14.47;68.62;98871.41;1721731;81;20976;-45
2022/09/20 12:15:38;;;;;;;8.68;4.75;;;;;;;14.42;68.86;98866.36;1755759;81;21075;-45
2022/09/20 12:18:29;;;;;;;5.28;4.40;;;;;;;14.38;68.87;98871.06;1755422;81;21110;-45
2022/09/20 12:21:02;;;;;;;4.40;3.77;;;;;;;14.31;68.93;98872.61;1765502;80;21003;-45
2022/09/20 12:23:51;;;;;;;5.85;4.28;;;;;;;14.31;69.12;98865.79;1789402;80;21002;-45
2022/09/20 12:26:35;;;;;;;7.05;4.33;;;;;;;14.30;69.21;98868.31;1760165;80;21040;-45
2022/09/20 12:29:25;;;;;;;6.95;4.12;;;;;;;14.22;69.53;98865.44;1789372;80;21071;-45
2022/09/20 12:31:55;;;;;;;7.97;3.60;;;;;;;14.09;69.67;98868.39;1789315;80;21215;-45
2022/09/20 12:34:32;;;;;;;4.35;3.20;;;;;;;13.94;69.12;98872.34;1789505;80;21034;-45
2022/09/20 12:37:05;;;;;;;5.28;2.95;;;;;;;13.83;69.24;98867.50;1789495;80;21004;-45
2022/09/20 12:39:36;;;;;;;4.33;2.33;;;;;;;13.79;69.52;98864.79;1789157;80;21019;-45
2022/09/20 12:42:10;;;;;;;3.05;2.25;;;;;;;13.81;69.10;98872.55;1789360;80;21054;-45
2022/09/20 12:44:51;;;;;;;5.37;2.60;;;;;;;13.76;68.94;98879.76;1789356;80;21758;-45
2022/09/20 12:47:32;;;;;;;4.58;2.70;;;;;;;13.74;69.06;98877.45;1789019;80;21557;-45
2022/09/20 12:52:56;;;;;;;3.22;2.45;;;;;;;13.72;69.28;98883.86;1789236;80;21044;-45
2022/09/20 12:55:51;;;;;;;3.02;1.90;;;;;;;13.75;69.19;98874.11;1789194;80;20996;-45
2022/09/20 12:58:27;;;;;;;4.62;2.52;;;;;;;13.78;69.11;98871.41;1788217;78;21628;-45
2022/09/20 13:01:09;;;;;;;4.25;2.45;;;;;;;13.79;69.08;98864.01;1780896;80;21016;-45